createdAt,value
2022-09-18T00:00:39.558Z,17.27
2022-09-18T00:01:37.690Z,17.32
2022-09-18T00:02:34.496Z,16.74
2022-09-18T00:03:31.213Z,16.85
2022-09-18T00:04:27.969Z,16.69
2022-09-18T00:05:24.684Z,16.12
2022-09-18T00:06:24.351Z,16.38
2022-09-18T00:07:21.112Z,16.27
2022-09-18T00:08:17.818Z,16.11
2022-09-18T00:09:15.835Z,15.44
2022-09-18T00:10:12.512Z,16.01
2022-09-18T00:11:11.693Z,15.47
2022-09-18T00:12:08.463Z,15.64
2022-09-18T00:13:05.171Z,15.76
2022-09-18T00:14:02.011Z,14.89
2022-09-18T00:14:58.717Z,15.89
2022-09-18T00:15:56.984Z,16.00
2022-09-18T00:16:53.731Z,15.19
2022-09-18T00:17:50.409Z,15.71
2022-09-18T00:18:48.099Z,15.74
2022-09-18T00:19:44.870Z,15.65
2022-09-18T00:20:41.573Z,15.48
2022-09-18T00:21:42.928Z,14.44
2022-09-18T00:22:40.768Z,14.54
2022-09-18T00:23:38.568Z,14.93
2022-09-18T00:24:35.565Z,13.31
2022-09-18T00:25:32.579Z,14.79
2022-09-18T00:26:29.662Z,14.26
2022-09-18T00:27:26.408Z,14.76
2022-09-18T00:28:23.092Z,15.16
2022-09-18T00:29:19.804Z,15.11
2022-09-18T00:30:17.257Z,15.10
2022-09-18T00:31:16.953Z,14.86
2022-09-18T00:32:13.724Z,14.80
2022-09-18T00:33:10.403Z,14.97
2022-09-18T00:34:11.241Z,14.57
2022-09-18T00:35:08.298Z,14.78
2022-09-18T00:36:09.151Z,14.02
2022-09-18T00:37:05.819Z,14.63
2022-09-18T00:38:02.502Z,14.30
2022-09-18T00:38:59.505Z,14.53
2022-09-18T00:39:56.309Z,13.31
2022-09-18T00:40:53.054Z,13.86
2022-09-18T00:41:49.791Z,14.18
2022-09-18T00:42:46.490Z,14.27
2022-09-18T00:43:43.424Z,14.11
2022-09-18T00:44:41.551Z,14.12
2022-09-18T00:45:38.419Z,14.35
2022-09-18T00:46:37.569Z,14.43
2022-09-18T00:47:50.638Z,14.19
2022-09-18T00:48:57.621Z,14.10
2022-09-18T00:50:03.379Z,14.25
2022-09-18T00:51:01.099Z,13.02
2022-09-18T00:52:01.708Z,14.10
2022-09-18T00:53:03.393Z,13.49
2022-09-18T00:54:18.415Z,13.99
2022-09-18T00:55:18.555Z,13.87
2022-09-18T00:56:16.842Z,14.17
2022-09-18T00:57:35.505Z,14.29
2022-09-18T00:58:32.270Z,13.98
2022-09-18T00:59:32.554Z,14.03
2022-09-18T01:00:31.515Z,13.73
2022-09-18T01:01:28.351Z,13.85
2022-09-18T01:02:25.168Z,12.80
2022-09-18T01:03:21.970Z,13.29
2022-09-18T01:04:18.664Z,13.35
2022-09-18T01:05:24.626Z,13.27
2022-09-18T01:06:30.164Z,13.05
2022-09-18T01:07:57.173Z,12.95
2022-09-18T01:08:56.755Z,13.02
2022-09-18T01:10:11.679Z,12.98
2022-09-18T01:11:14.091Z,12.90
2022-09-18T01:12:33.116Z,12.54
2022-09-18T01:14:07.160Z,12.80
2022-09-18T01:15:09.382Z,12.73
2022-09-18T01:16:13.441Z,12.66
2022-09-18T01:17:28.467Z,12.71
2022-09-18T01:18:46.522Z,12.55
2022-09-18T01:20:01.506Z,12.59
2022-09-18T01:21:19.606Z,12.58
2022-09-18T01:22:58.818Z,11.72
2022-09-18T01:24:29.936Z,12.48
2022-09-18T01:25:26.612Z,12.39
2022-09-18T01:27:02.925Z,12.25
2022-09-18T01:28:22.493Z,12.30
2022-09-18T01:29:28.750Z,12.17
2022-09-18T01:30:25.566Z,12.32
2022-09-18T01:31:33.403Z,11.60
2022-09-18T01:32:48.895Z,12.18
2022-09-18T01:33:58.762Z,11.87
2022-09-18T01:35:36.891Z,11.81
2022-09-18T01:36:34.322Z,11.65
2022-09-18T01:37:50.482Z,11.92
2022-09-18T01:39:02.877Z,11.76
2022-09-18T01:40:29.148Z,11.94
2022-09-18T01:41:29.219Z,11.85
2022-09-18T01:42:30.146Z,11.71
2022-09-18T01:43:31.496Z,11.64
2022-09-18T01:44:33.045Z,11.86
2022-09-18T01:45:35.657Z,10.79
2022-09-18T01:46:37.571Z,12.16
2022-09-18T01:47:43.814Z,12.53
2022-09-18T01:49:07.264Z,11.76
2022-09-18T01:50:07.199Z,11.80
2022-09-18T01:51:28.569Z,11.49
2022-09-18T01:52:45.046Z,11.69
2022-09-18T01:53:51.815Z,11.79
2022-09-18T01:54:52.741Z,11.55
2022-09-18T01:56:02.760Z,10.79
2022-09-18T01:57:13.035Z,11.78
2022-09-18T01:58:17.432Z,11.72
2022-09-18T01:59:33.493Z,11.69
2022-09-18T02:00:31.777Z,11.71
2022-09-18T02:01:33.829Z,11.75
2022-09-18T02:02:39.201Z,11.83
2022-09-18T02:03:45.356Z,11.95
2022-09-18T02:04:47.400Z,11.81
2022-09-18T02:05:51.663Z,11.95
2022-09-18T02:07:14.320Z,11.31
2022-09-18T02:08:23.378Z,11.55
2022-09-18T02:09:20.703Z,11.78
2022-09-18T02:10:23.313Z,10.92
2022-09-18T02:11:22.512Z,11.71
2022-09-18T02:12:23.253Z,11.81
2022-09-18T02:13:28.211Z,11.22
2022-09-18T02:14:42.897Z,11.57
2022-09-18T02:15:43.745Z,12.09
2022-09-18T02:16:46.160Z,12.44
2022-09-18T02:17:42.862Z,12.32
2022-09-18T02:18:45.439Z,12.39
2022-09-18T02:19:51.010Z,12.14
2022-09-18T02:20:48.558Z,12.29
2022-09-18T02:21:49.798Z,12.09
2022-09-18T02:22:51.097Z,12.18
2022-09-18T02:23:48.753Z,12.29
2022-09-18T02:24:49.728Z,11.28
2022-09-18T02:25:54.623Z,11.67
2022-09-18T02:26:54.577Z,11.50
2022-09-18T02:27:54.799Z,11.80
2022-09-18T02:28:51.911Z,11.46
2022-09-18T02:29:49.547Z,11.14
2022-09-18T02:30:46.707Z,10.98
2022-09-18T02:31:43.865Z,11.24
2022-09-18T02:32:41.818Z,11.47
2022-09-18T02:33:38.791Z,10.90
2022-09-18T02:34:35.880Z,11.26
2022-09-18T02:35:44.651Z,11.25
2022-09-18T02:37:00.030Z,11.52
2022-09-18T02:38:15.068Z,11.66
2022-09-18T02:39:48.927Z,11.34
2022-09-18T02:41:07.537Z,11.70
2022-09-18T02:42:04.136Z,11.63
2022-09-18T02:43:32.301Z,10.71
2022-09-18T02:44:41.125Z,11.85
2022-09-18T02:46:21.483Z,11.98
2022-09-18T02:47:18.130Z,12.03
2022-09-18T02:48:33.125Z,11.80
2022-09-18T02:49:30.405Z,11.70
2022-09-18T02:50:48.873Z,11.58
2022-09-18T02:51:45.516Z,11.60
2022-09-18T02:52:55.095Z,11.38
2022-09-18T02:54:00.724Z,11.49
2022-09-18T02:55:10.206Z,11.66
2022-09-18T02:56:18.008Z,11.66
2022-09-18T02:57:35.518Z,11.57
2022-09-18T02:58:53.667Z,11.00
2022-09-18T02:59:58.428Z,11.45
2022-09-18T03:01:01.093Z,11.42
2022-09-18T03:01:59.922Z,11.68
2022-09-18T03:02:58.873Z,11.65
2022-09-18T03:04:03.859Z,11.05
2022-09-18T03:05:00.551Z,11.33
2022-09-18T03:05:57.552Z,11.27
2022-09-18T03:06:54.908Z,11.16
2022-09-18T03:07:51.999Z,11.29
2022-09-18T03:08:50.071Z,11.38
2022-09-18T03:09:46.753Z,11.36
2022-09-18T03:10:43.471Z,11.39
2022-09-18T03:11:40.190Z,11.56
2022-09-18T03:12:36.959Z,11.52
2022-09-18T03:13:34.124Z,11.15
2022-09-18T03:14:30.862Z,10.99
2022-09-18T03:15:27.661Z,10.68
2022-09-18T03:16:24.499Z,10.29
2022-09-18T03:17:21.233Z,11.17
2022-09-18T03:18:17.983Z,10.97
2022-09-18T03:19:14.860Z,11.50
2022-09-18T03:20:11.592Z,11.41
2022-09-18T03:21:08.285Z,11.26
2022-09-18T03:22:05.321Z,11.29
2022-09-18T03:23:02.073Z,11.26
2022-09-18T03:23:58.855Z,11.43
2022-09-18T03:24:55.548Z,11.25
2022-09-18T03:25:52.794Z,11.51
2022-09-18T03:26:52.366Z,11.17
2022-09-18T03:27:49.142Z,10.52
2022-09-18T03:28:46.259Z,11.43
2022-09-18T03:30:56.896Z,11.21
2022-09-18T03:31:53.665Z,11.02
2022-09-18T03:32:50.777Z,9.88
2022-09-18T03:33:47.460Z,11.22
2022-09-18T03:34:44.215Z,10.66
2022-09-18T03:35:43.175Z,11.13
2022-09-18T03:36:39.870Z,11.33
2022-09-18T03:37:36.564Z,10.84
2022-09-18T03:38:33.991Z,11.12
2022-09-18T03:39:30.714Z,11.15
2022-09-18T03:40:27.582Z,11.40
2022-09-18T03:41:24.347Z,11.32
2022-09-18T03:42:21.209Z,11.32
2022-09-18T03:43:17.904Z,11.33
2022-09-18T03:44:14.606Z,10.22
2022-09-18T03:45:12.319Z,11.36
2022-09-18T03:46:09.023Z,11.08
2022-09-18T03:47:05.853Z,11.06
2022-09-18T03:48:03.169Z,11.14
2022-09-18T03:48:59.957Z,10.92
2022-09-18T03:49:56.649Z,10.87
2022-09-18T03:50:53.386Z,11.22
2022-09-18T03:51:50.057Z,10.86
2022-09-18T03:52:51.255Z,11.12
2022-09-18T03:53:51.088Z,10.35
2022-09-18T03:54:48.342Z,11.26
2022-09-18T03:55:46.838Z,11.10
2022-09-18T03:56:43.622Z,10.94
2022-09-18T03:57:40.309Z,11.08
2022-09-18T03:58:37.010Z,11.38
2022-09-18T03:59:33.772Z,11.38
2022-09-18T04:00:30.475Z,11.42
2022-09-18T04:01:27.195Z,10.79
2022-09-18T04:02:23.923Z,10.11
2022-09-18T04:03:20.658Z,11.39
2022-09-18T04:04:17.407Z,10.72
2022-09-18T04:05:15.398Z,11.22
2022-09-18T04:06:12.194Z,11.25
2022-09-18T04:07:08.981Z,11.16
2022-09-18T04:08:05.659Z,11.28
2022-09-18T04:09:02.512Z,10.55
2022-09-18T04:09:59.435Z,11.40
2022-09-18T04:10:56.149Z,11.35
2022-09-18T04:11:52.882Z,11.25
2022-09-18T04:12:49.630Z,10.90
2022-09-18T04:13:46.319Z,11.05
2022-09-18T04:14:43.107Z,10.95
2022-09-18T04:15:39.885Z,11.37
2022-09-18T04:16:36.737Z,11.25
2022-09-18T04:17:33.422Z,11.10
2022-09-18T04:18:31.063Z,11.19
2022-09-18T04:19:27.937Z,10.66
2022-09-18T04:20:24.833Z,11.03
2022-09-18T04:21:21.509Z,10.51
2022-09-18T04:22:18.686Z,10.97
2022-09-18T04:23:15.482Z,10.81
2022-09-18T04:24:12.190Z,10.86
2022-09-18T04:25:09.449Z,11.05
2022-09-18T04:26:09.589Z,10.94
2022-09-18T04:27:07.021Z,11.03
2022-09-18T04:28:03.925Z,10.75
2022-09-18T04:29:00.891Z,10.87
2022-09-18T04:29:57.633Z,10.30
2022-09-18T04:30:54.382Z,11.04
2022-09-18T04:31:51.150Z,10.24
2022-09-18T04:32:47.919Z,9.91
2022-09-18T04:33:44.618Z,10.77
2022-09-18T04:34:41.338Z,10.90
2022-09-18T04:35:38.068Z,10.54
2022-09-18T04:36:34.774Z,10.60
2022-09-18T04:37:31.533Z,10.74
2022-09-18T04:38:28.226Z,10.81
2022-09-18T04:39:24.909Z,10.65
2022-09-18T04:40:22.183Z,10.94
2022-09-18T04:41:18.891Z,10.76
2022-09-18T04:42:15.636Z,11.03
2022-09-18T04:43:12.370Z,11.15
2022-09-18T04:44:09.052Z,11.08
2022-09-18T04:45:06.633Z,11.04
2022-09-18T04:46:03.511Z,11.12
2022-09-18T04:47:00.262Z,11.01
2022-09-18T04:47:57.029Z,11.10
2022-09-18T04:48:54.181Z,10.65
2022-09-18T04:49:50.948Z,10.97
2022-09-18T04:50:49.811Z,9.74
2022-09-18T04:51:46.500Z,10.74
2022-09-18T04:52:44.340Z,10.39
2022-09-18T04:53:41.451Z,10.75
2022-09-18T04:54:38.214Z,10.98
2022-09-18T04:55:35.062Z,11.01
2022-09-18T04:56:31.779Z,11.25
2022-09-18T04:57:28.739Z,11.20
2022-09-18T04:58:25.429Z,10.82
2022-09-18T04:59:22.657Z,11.04
2022-09-18T05:00:19.386Z,10.66
2022-09-18T05:01:16.160Z,10.50
2022-09-18T05:02:12.965Z,11.18
2022-09-18T05:03:10.391Z,10.46
2022-09-18T05:04:07.305Z,10.97
2022-09-18T05:05:04.165Z,11.20
2022-09-18T05:06:00.951Z,10.07
2022-09-18T05:06:57.702Z,11.03
2022-09-18T05:07:54.573Z,11.16
2022-09-18T05:08:51.269Z,11.20
2022-09-18T05:09:47.975Z,11.20
2022-09-18T05:10:44.722Z,11.17
2022-09-18T05:11:41.529Z,11.45
2022-09-18T05:12:41.303Z,11.68
2022-09-18T05:13:40.121Z,11.43
2022-09-18T05:14:36.880Z,11.04
2022-09-18T05:15:33.614Z,11.57
2022-09-18T05:16:30.341Z,11.54
2022-09-18T05:17:27.025Z,11.56
2022-09-18T05:18:24.450Z,11.53
2022-09-18T05:19:21.241Z,11.62
2022-09-18T05:20:18.000Z,11.69
2022-09-18T05:21:14.740Z,11.84
2022-09-18T05:22:11.520Z,11.73
2022-09-18T05:23:08.323Z,11.37
2022-09-18T05:24:05.121Z,11.56
2022-09-18T05:25:01.845Z,11.96
2022-09-18T05:25:58.623Z,11.53
2022-09-18T05:26:55.308Z,11.65
2022-09-18T05:28:00.395Z,11.16
2022-09-18T05:28:57.289Z,11.54
2022-09-18T05:29:54.053Z,11.57
2022-09-18T05:30:50.759Z,11.50
2022-09-18T05:31:47.929Z,11.49
2022-09-18T05:32:44.648Z,11.45
2022-09-18T05:33:41.823Z,11.31
2022-09-18T05:34:38.512Z,11.76
2022-09-18T05:35:36.394Z,11.50
2022-09-18T05:36:33.267Z,10.24
2022-09-18T05:37:29.990Z,11.45
2022-09-18T05:38:27.650Z,11.41
2022-09-18T05:39:24.641Z,10.49
2022-09-18T05:40:24.572Z,10.97
2022-09-18T05:41:21.595Z,11.25
2022-09-18T05:42:18.369Z,11.35
2022-09-18T05:43:15.938Z,11.45
2022-09-18T05:44:12.618Z,11.33
2022-09-18T05:45:09.714Z,11.00
2022-09-18T05:46:09.294Z,10.72
2022-09-18T05:47:09.017Z,11.63
2022-09-18T05:48:07.038Z,11.54
2022-09-18T05:49:03.945Z,11.45
2022-09-18T05:50:00.635Z,11.67
2022-09-18T05:50:57.355Z,11.54
2022-09-18T05:51:57.130Z,11.54
2022-09-18T05:53:13.108Z,11.65
2022-09-18T05:54:09.821Z,11.59
2022-09-18T05:55:07.071Z,11.90
2022-09-18T05:56:03.918Z,12.03
2022-09-18T05:57:00.695Z,11.48
2022-09-18T05:57:58.586Z,11.83
2022-09-18T05:58:55.343Z,11.78
2022-09-18T05:59:52.066Z,11.68
2022-09-18T06:00:51.199Z,11.71
2022-09-18T06:01:48.019Z,11.51
2022-09-18T06:02:45.582Z,12.00
2022-09-18T06:03:42.529Z,11.60
2022-09-18T06:04:40.119Z,11.95
2022-09-18T06:05:40.207Z,11.81
2022-09-18T06:06:37.131Z,11.63
2022-09-18T06:07:33.855Z,12.05
2022-09-18T06:08:30.734Z,11.97
2022-09-18T06:09:27.832Z,11.92
2022-09-18T06:10:24.777Z,11.76
2022-09-18T06:11:21.546Z,11.14
2022-09-18T06:12:18.255Z,11.07
2022-09-18T06:13:17.498Z,11.67
2022-09-18T06:14:14.406Z,12.19
2022-09-18T06:15:13.058Z,11.85
2022-09-18T06:16:09.853Z,12.25
2022-09-18T06:17:06.673Z,12.28
2022-09-18T06:18:05.422Z,11.95
2022-09-18T06:19:02.197Z,12.13
2022-09-18T06:20:00.024Z,11.64
2022-09-18T06:20:58.575Z,11.81
2022-09-18T06:21:55.296Z,11.89
2022-09-18T06:22:52.159Z,11.74
2022-09-18T06:23:48.862Z,11.61
2022-09-18T06:24:45.552Z,11.88
2022-09-18T06:25:42.253Z,11.88
2022-09-18T06:26:38.938Z,11.79
2022-09-18T06:27:35.634Z,11.12
2022-09-18T06:28:34.193Z,12.06
2022-09-18T06:29:31.109Z,11.88
2022-09-18T06:30:30.979Z,11.99
2022-09-18T06:31:27.753Z,11.83
2022-09-18T06:32:24.413Z,10.90
2022-09-18T06:33:21.105Z,11.58
2022-09-18T06:34:17.777Z,11.91
2022-09-18T06:35:14.509Z,11.85
2022-09-18T06:36:14.011Z,11.89
2022-09-18T06:37:11.525Z,11.97
2022-09-18T06:38:10.217Z,11.66
2022-09-18T06:39:07.053Z,12.00
2022-09-18T06:40:05.144Z,12.17
2022-09-18T06:41:01.992Z,12.13
2022-09-18T06:42:00.246Z,11.65
2022-09-18T06:42:58.867Z,11.94
2022-09-18T06:43:55.793Z,11.48
2022-09-18T06:44:52.461Z,11.86
2022-09-18T06:45:57.349Z,11.92
2022-09-18T06:46:54.126Z,11.75
2022-09-18T06:47:55.053Z,11.55
2022-09-18T06:48:51.783Z,12.03
2022-09-18T06:49:48.555Z,12.17
2022-09-18T06:50:51.490Z,11.62
2022-09-18T06:51:48.670Z,11.83
2022-09-18T06:52:45.414Z,12.41
2022-09-18T06:53:42.285Z,12.14
2022-09-18T06:54:38.953Z,12.00
2022-09-18T06:55:35.715Z,11.11
2022-09-18T06:56:32.524Z,12.23
2022-09-18T06:57:29.248Z,12.30
2022-09-18T06:58:25.974Z,11.63
2022-09-18T06:59:22.842Z,12.35
2022-09-18T07:00:19.687Z,12.25
2022-09-18T07:01:16.660Z,12.57
2022-09-18T07:02:19.167Z,11.48
2022-09-18T07:03:16.494Z,12.37
2022-09-18T07:04:13.183Z,11.54
2022-09-18T07:05:09.866Z,12.30
2022-09-18T07:06:09.587Z,12.41
2022-09-18T07:07:07.754Z,12.35
2022-09-18T07:08:04.538Z,12.08
2022-09-18T07:09:01.459Z,11.81
2022-09-18T07:09:58.335Z,11.55
2022-09-18T07:11:00.381Z,12.40
2022-09-18T07:11:57.399Z,12.35
2022-09-18T07:13:02.180Z,12.15
2022-09-18T07:13:58.890Z,12.32
2022-09-18T07:14:55.926Z,12.41
2022-09-18T07:15:52.640Z,12.39
2022-09-18T07:16:49.434Z,12.73
2022-09-18T07:17:46.378Z,12.55
2022-09-18T07:18:43.516Z,12.85
2022-09-18T07:19:40.187Z,12.32
2022-09-18T07:20:36.869Z,12.65
2022-09-18T07:21:33.585Z,12.85
2022-09-18T07:22:30.880Z,12.69
2022-09-18T07:23:29.766Z,12.75
2022-09-18T07:24:26.504Z,12.47
2022-09-18T07:25:24.797Z,12.25
2022-09-18T07:26:21.507Z,11.39
2022-09-18T07:27:18.214Z,12.41
2022-09-18T07:28:14.919Z,12.28
2022-09-18T07:29:11.689Z,12.60
2022-09-18T07:30:08.995Z,12.33
2022-09-18T07:31:06.421Z,12.17
2022-09-18T07:32:03.281Z,12.41
2022-09-18T07:33:02.486Z,12.09
2022-09-18T07:33:59.165Z,12.10
2022-09-18T07:34:55.886Z,12.51
2022-09-18T07:35:52.761Z,11.74
2022-09-18T07:36:50.383Z,12.08
2022-09-18T07:37:47.059Z,12.54
2022-09-18T07:38:43.861Z,12.78
2022-09-18T07:39:40.588Z,12.23
2022-09-18T07:40:37.925Z,11.97
2022-09-18T07:41:34.677Z,11.96
2022-09-18T07:42:31.594Z,12.58
2022-09-18T07:43:28.280Z,13.00
2022-09-18T07:44:26.209Z,12.06
2022-09-18T07:45:22.923Z,11.56
2022-09-18T07:46:19.724Z,12.72
2022-09-18T07:47:16.519Z,12.11
2022-09-18T07:48:13.826Z,12.03
2022-09-18T07:49:10.537Z,12.59
2022-09-18T07:50:09.154Z,12.58
2022-09-18T07:51:05.968Z,12.51
2022-09-18T07:52:02.663Z,12.16
2022-09-18T07:53:02.570Z,12.11
2022-09-18T07:53:59.284Z,11.98
2022-09-18T07:54:57.007Z,11.73
2022-09-18T07:55:55.820Z,12.58
2022-09-18T07:56:52.691Z,12.69
2022-09-18T07:57:55.720Z,12.83
2022-09-18T07:58:52.448Z,12.80
2022-09-18T07:59:49.154Z,12.15
2022-09-18T08:00:45.879Z,12.93
2022-09-18T08:01:42.680Z,12.86
2022-09-18T08:02:39.669Z,12.82
2022-09-18T08:03:41.218Z,12.93
2022-09-18T08:04:38.976Z,12.76
2022-09-18T08:05:36.270Z,12.95
2022-09-18T08:06:33.082Z,13.14
2022-09-18T08:07:29.773Z,13.02
2022-09-18T08:08:26.539Z,13.05
2022-09-18T08:09:23.669Z,12.60
2022-09-18T08:10:20.478Z,12.97
2022-09-18T08:11:17.159Z,12.41
2022-09-18T08:12:15.377Z,13.47
2022-09-18T08:13:12.593Z,13.33
2022-09-18T08:14:09.314Z,13.29
2022-09-18T08:15:06.463Z,13.38
2022-09-18T08:16:04.143Z,13.12
2022-09-18T08:17:00.859Z,13.81
2022-09-18T08:17:57.716Z,13.15
2022-09-18T08:18:57.458Z,13.09
2022-09-18T08:19:54.143Z,13.27
2022-09-18T08:20:50.839Z,13.51
2022-09-18T08:21:47.494Z,13.12
2022-09-18T08:22:44.230Z,13.74
2022-09-18T08:23:40.885Z,13.53
2022-09-18T08:24:37.692Z,12.82
2022-09-18T08:25:34.462Z,13.47
2022-09-18T08:26:31.326Z,13.64
2022-09-18T08:27:28.828Z,12.82
2022-09-18T08:28:25.511Z,14.08
2022-09-18T08:29:22.250Z,13.43
2022-09-18T08:30:19.468Z,13.49
2022-09-18T08:31:16.307Z,12.74
2022-09-18T08:32:13.224Z,13.42
2022-09-18T08:33:11.592Z,13.36
2022-09-18T08:34:09.414Z,13.14
2022-09-18T08:35:06.782Z,12.72
2022-09-18T08:36:03.614Z,12.72
2022-09-18T08:37:00.299Z,13.63
2022-09-18T08:37:58.093Z,13.56
2022-09-18T08:38:55.893Z,13.91
2022-09-18T08:39:52.632Z,14.14
2022-09-18T08:41:14.271Z,13.22
2022-09-18T08:42:52.070Z,13.59
2022-09-18T08:44:05.716Z,13.56
2022-09-18T08:45:17.281Z,13.49
2022-09-18T08:46:26.742Z,13.34
2022-09-18T08:47:27.329Z,13.28
2022-09-18T08:49:06.842Z,12.97
2022-09-18T08:50:15.500Z,13.49
2022-09-18T08:51:30.742Z,13.25
2022-09-18T08:52:38.339Z,12.57
2022-09-18T08:53:42.318Z,12.46
2022-09-18T08:55:02.529Z,13.00
2022-09-18T08:56:04.513Z,13.44
2022-09-18T08:57:15.242Z,12.47
2022-09-18T08:58:23.061Z,13.16
2022-09-18T08:59:49.630Z,13.13
2022-09-18T09:00:52.561Z,11.68
2022-09-18T09:02:17.050Z,13.09
2022-09-18T09:03:29.114Z,13.22
2022-09-18T09:04:29.963Z,13.22
2022-09-18T09:05:37.838Z,13.20
2022-09-18T09:06:58.961Z,13.55
2022-09-18T09:08:17.023Z,13.57
2022-09-18T09:09:50.586Z,13.50
2022-09-18T09:11:14.816Z,13.91
2022-09-18T09:12:23.596Z,14.08
2022-09-18T09:13:26.317Z,14.18
2022-09-18T09:14:56.090Z,14.37
2022-09-18T09:15:59.583Z,14.92
2022-09-18T09:17:09.898Z,14.64
2022-09-18T09:18:28.744Z,13.89
2022-09-18T09:19:31.294Z,14.21
2022-09-18T09:20:30.742Z,14.44
2022-09-18T09:22:00.782Z,13.68
2022-09-18T09:23:19.477Z,13.38
2022-09-18T09:24:32.984Z,14.27
2022-09-18T09:26:02.726Z,13.48
2022-09-18T09:27:13.711Z,13.52
2022-09-18T09:28:26.492Z,12.92
2022-09-18T09:29:39.978Z,12.53
2022-09-18T09:30:40.841Z,13.77
2022-09-18T09:31:50.820Z,12.69
2022-09-18T09:33:02.899Z,13.91
2022-09-18T09:34:26.014Z,13.41
2022-09-18T09:35:22.867Z,14.22
2022-09-18T09:36:27.575Z,13.65
2022-09-18T09:37:36.024Z,14.26
2022-09-18T09:38:41.343Z,13.55
2022-09-18T09:39:56.597Z,13.46
2022-09-18T09:40:55.927Z,13.93
2022-09-18T09:42:25.910Z,13.40
2022-09-18T09:43:35.517Z,14.21
2022-09-18T09:44:41.091Z,14.34
2022-09-18T09:45:54.417Z,14.35
2022-09-18T09:47:00.418Z,14.27
2022-09-18T09:48:06.435Z,14.27
2022-09-18T09:49:34.984Z,14.19
2022-09-18T09:50:41.582Z,13.00
2022-09-18T09:51:53.174Z,13.92
2022-09-18T09:52:57.949Z,13.91
2022-09-18T09:53:56.044Z,13.59
2022-09-18T09:55:00.512Z,12.58
2022-09-18T09:56:38.770Z,13.97
2022-09-18T09:57:49.544Z,14.01
2022-09-18T09:58:55.535Z,13.99
2022-09-18T10:00:17.799Z,13.61
2022-09-18T10:01:27.026Z,13.57
2022-09-18T10:02:41.484Z,13.32
2022-09-18T10:03:55.262Z,13.25
2022-09-18T10:05:31.230Z,12.97
2022-09-18T10:06:40.194Z,13.88
2022-09-18T10:07:50.102Z,13.79
2022-09-18T10:08:59.780Z,13.72
2022-09-18T10:10:06.602Z,13.50
2022-09-18T10:11:08.837Z,14.00
2022-09-18T10:12:22.446Z,14.04
2022-09-18T10:13:29.222Z,13.45
2022-09-18T10:14:31.655Z,12.71
2022-09-18T10:15:45.629Z,13.71
2022-09-18T10:16:54.176Z,13.89
2022-09-18T10:17:58.058Z,12.79
2022-09-18T10:18:54.740Z,13.37
2022-09-18T10:19:52.325Z,13.93
2022-09-18T10:20:55.834Z,13.56
2022-09-18T10:21:56.064Z,13.79
2022-09-18T10:22:54.124Z,12.90
2022-09-18T10:24:01.036Z,13.76
2022-09-18T10:25:23.905Z,13.55
2022-09-18T10:26:29.877Z,13.47
2022-09-18T10:27:26.687Z,13.37
2022-09-18T10:28:25.792Z,13.45
2022-09-18T10:29:22.682Z,13.41
2022-09-18T10:30:19.431Z,13.27
2022-09-18T10:31:18.123Z,13.42
2022-09-18T10:32:36.638Z,13.64
2022-09-18T10:33:36.436Z,13.76
2022-09-18T10:34:40.386Z,13.68
2022-09-18T10:35:37.039Z,13.78
2022-09-18T10:36:39.177Z,14.00
2022-09-18T10:37:35.821Z,13.90
2022-09-18T10:38:34.938Z,13.77
2022-09-18T10:39:34.730Z,14.06
2022-09-18T10:40:37.273Z,13.86
2022-09-18T10:41:39.305Z,12.96
2022-09-18T10:42:44.870Z,13.86
2022-09-18T10:44:03.677Z,14.00
2022-09-18T10:45:22.422Z,13.06
2022-09-18T10:46:36.064Z,14.03
2022-09-18T10:47:36.566Z,13.93
2022-09-18T10:48:33.492Z,13.43
2022-09-18T10:49:37.806Z,13.73
2022-09-18T10:50:34.793Z,13.44
2022-09-18T10:51:31.580Z,13.81
2022-09-18T10:52:38.399Z,14.03
2022-09-18T10:53:42.513Z,13.89
2022-09-18T10:54:39.271Z,13.96
2022-09-18T10:55:52.607Z,13.90
2022-09-18T10:56:52.569Z,13.33
2022-09-18T10:57:58.246Z,14.35
2022-09-18T10:58:54.979Z,14.42
2022-09-18T10:59:51.670Z,13.56
2022-09-18T11:00:56.512Z,13.96
2022-09-18T11:01:58.048Z,13.93
2022-09-18T11:03:03.653Z,14.08
2022-09-18T11:04:06.706Z,14.11
2022-09-18T11:05:03.993Z,13.68
2022-09-18T11:06:17.008Z,14.14
2022-09-18T11:07:14.213Z,13.30
2022-09-18T11:08:18.747Z,14.09
2022-09-18T11:09:23.826Z,13.95
2022-09-18T11:10:24.639Z,13.02
2022-09-18T11:11:37.281Z,13.37
2022-09-18T11:12:35.149Z,13.32
2022-09-18T11:13:35.128Z,13.75
2022-09-18T11:14:41.043Z,13.86
2022-09-18T11:15:38.816Z,12.87
2022-09-18T11:16:45.507Z,13.16
2022-09-18T11:17:50.425Z,14.43
2022-09-18T11:18:47.594Z,13.70
2022-09-18T11:19:51.209Z,14.18
2022-09-18T11:20:48.355Z,14.31
2022-09-18T11:21:51.353Z,14.16
2022-09-18T11:22:48.254Z,14.32
2022-09-18T11:23:45.024Z,14.29
2022-09-18T11:24:46.638Z,14.40
2022-09-18T11:25:48.110Z,14.00
2022-09-18T11:26:50.952Z,14.41
2022-09-18T11:27:59.759Z,14.52
2022-09-18T11:29:06.575Z,13.26
2022-09-18T11:30:21.983Z,14.60
2022-09-18T11:31:21.556Z,14.03
2022-09-18T11:32:26.483Z,14.48
2022-09-18T11:33:49.141Z,14.51
2022-09-18T11:34:53.786Z,13.75
2022-09-18T11:36:00.817Z,14.41
2022-09-18T11:37:02.635Z,14.44
2022-09-18T11:38:07.877Z,14.51
2022-09-18T11:39:15.426Z,14.40
2022-09-18T11:40:21.673Z,14.03
2022-09-18T11:41:30.959Z,13.75
2022-09-18T11:42:28.057Z,14.06
2022-09-18T11:43:32.515Z,14.62
2022-09-18T11:44:33.223Z,14.72
2022-09-18T11:46:08.081Z,14.74
2022-09-18T11:47:30.764Z,14.63
2022-09-18T11:48:36.410Z,14.77
2022-09-18T11:49:48.822Z,14.49
2022-09-18T11:50:46.679Z,14.76
2022-09-18T11:51:59.630Z,14.40
2022-09-18T11:53:04.297Z,14.53
2022-09-18T11:54:11.898Z,14.75
2022-09-18T11:55:31.708Z,14.73
2022-09-18T11:56:39.207Z,14.39
2022-09-18T11:57:45.961Z,15.00
2022-09-18T11:59:03.806Z,14.83
2022-09-18T12:00:18.873Z,15.17
2022-09-18T12:01:27.292Z,15.45
2022-09-18T12:02:43.876Z,15.31
2022-09-18T12:04:07.688Z,14.73
2022-09-18T12:05:23.918Z,15.13
2022-09-18T12:06:31.183Z,14.59
2022-09-18T12:07:38.489Z,14.90
2022-09-18T12:09:00.383Z,14.94
2022-09-18T12:10:15.528Z,14.99
2022-09-18T12:11:36.308Z,14.52
2022-09-18T12:12:47.515Z,14.58
2022-09-18T12:14:02.286Z,14.63
2022-09-18T12:15:15.227Z,13.86
2022-09-18T12:16:25.218Z,14.82
2022-09-18T12:17:44.969Z,14.88
2022-09-18T12:19:04.100Z,14.92
2022-09-18T12:20:09.326Z,14.49
2022-09-18T12:21:14.922Z,14.42
2022-09-18T12:22:19.041Z,14.68
2022-09-18T12:23:22.863Z,13.88
2022-09-18T12:24:19.614Z,14.59
2022-09-18T12:25:20.681Z,14.52
2022-09-18T12:26:31.309Z,14.27
2022-09-18T12:27:49.109Z,14.29
2022-09-18T12:29:07.318Z,14.27
2022-09-18T12:30:07.602Z,14.52
2022-09-18T12:31:27.125Z,14.55
2022-09-18T12:33:01.138Z,14.50
2022-09-18T12:34:25.814Z,14.32
2022-09-18T12:35:25.226Z,14.53
2022-09-18T12:36:54.869Z,14.03
2022-09-18T12:38:03.571Z,14.35
2022-09-18T12:39:01.137Z,14.43
2022-09-18T12:40:28.034Z,14.46
2022-09-18T12:41:44.684Z,14.72
2022-09-18T12:42:50.114Z,15.02
2022-09-18T12:44:01.725Z,15.15
2022-09-18T12:45:23.783Z,15.30
2022-09-18T12:46:32.661Z,15.35
2022-09-18T12:48:19.854Z,14.92
2022-09-18T12:49:19.139Z,14.94
2022-09-18T12:50:46.981Z,14.93
2022-09-18T12:52:06.994Z,14.98
2022-09-18T12:53:24.033Z,15.13
2022-09-18T12:54:27.691Z,15.10
2022-09-18T12:55:45.216Z,14.12
2022-09-18T12:57:07.035Z,14.82
2022-09-18T12:58:22.302Z,14.95
2022-09-18T12:59:21.643Z,14.86
2022-09-18T13:00:19.076Z,13.98
2022-09-18T13:01:48.421Z,14.52
2022-09-18T13:03:29.721Z,15.19
2022-09-18T13:04:34.655Z,14.08
2022-09-18T13:05:43.858Z,15.23
2022-09-18T13:06:49.957Z,15.20
2022-09-18T13:08:11.118Z,15.14
2022-09-18T13:09:25.782Z,15.21
2022-09-18T13:10:43.422Z,15.10
2022-09-18T13:11:44.191Z,14.74
2022-09-18T13:12:52.851Z,15.05
2022-09-18T13:14:12.873Z,14.94
2022-09-18T13:15:26.824Z,14.49
2022-09-18T13:16:50.692Z,14.55
2022-09-18T13:18:08.349Z,14.50
2022-09-18T13:19:14.345Z,14.33
2022-09-18T13:20:33.601Z,14.11
2022-09-18T13:21:37.500Z,14.82
2022-09-18T13:22:38.193Z,14.74
2022-09-18T13:23:41.787Z,14.50
2022-09-18T13:24:42.122Z,14.58
2022-09-18T13:25:41.322Z,14.53
2022-09-18T13:26:39.807Z,14.65
2022-09-18T13:27:37.012Z,14.14
2022-09-18T13:28:34.476Z,14.38
2022-09-18T13:29:52.984Z,14.52
2022-09-18T13:31:14.881Z,14.42
2022-09-18T13:32:14.436Z,14.25